sensor_id;sensor_type;location;lat;lon;timestamp;temperature;humidity
55369;DHT22;41247;49.736;8.752;2022-11-20T00:00:55;2.20;99.90
55369;DHT22;41247;49.736;8.752;2022-11-20T00:04:36;2.00;99.90
55369;DHT22;41247;49.736;8.752;2022-11-20T00:08:16;2.00;99.90
55369;DHT22;41247;49.736;8.752;2022-11-20T00:11:57;1.90;99.90
55369;DHT22;41247;49.736;8.752;2022-11-20T00:15:38;1.90;99.90
55369;DHT22;41247;49.736;8.752;2022-11-20T00:19:18;1.90;99.90
55369;DHT22;41247;49.736;8.752;2022-11-20T00:22:59;1.90;99.90
55369;DHT22;41247;49.736;8.752;2022-11-20T00:26:39;1.80;99.90
55369;DHT22;41247;49.736;8.752;2022-11-20T00:30:20;1.80;99.90
55369;DHT22;41247;49.736;8.752;2022-11-20T00:34:00;1.80;99.90
55369;DHT22;41247;49.736;8.752;2022-11-20T00:37:41;1.90;99.90
55369;DHT22;41247;49.736;8.752;2022-11-20T00:41:22;1.80;99.90
55369;DHT22;41247;49.736;8.752;2022-11-20T00:45:04;1.80;99.90
55369;DHT22;41247;49.736;8.752;2022-11-20T00:48:45;1.80;99.90
55369;DHT22;41247;49.736;8.752;2022-11-20T00:52:26;1.90;99.90
55369;DHT22;41247;49.736;8.752;2022-11-20T00:56:10;1.80;99.90
55369;DHT22;41247;49.736;8.752;2022-11-20T00:59:52;1.80;99.90
55369;DHT22;41247;49.736;8.752;2022-11-20T01:03:38;1.90;99.90
55369;DHT22;41247;49.736;8.752;2022-11-20T01:07:20;1.90;99.90
55369;DHT22;41247;49.736;8.752;2022-11-20T01:11:06;1.90;99.90
55369;DHT22;41247;49.736;8.752;2022-11-20T01:14:51;1.90;99.90
55369;DHT22;41247;49.736;8.752;2022-11-20T01:18:32;1.90;99.90
55369;DHT22;41247;49.736;8.752;2022-11-20T01:22:13;1.90;99.90
55369;DHT22;41247;49.736;8.752;2022-11-20T01:25:54;2.00;99.90
55369;DHT22;41247;49.736;8.752;2022-11-20T01:29:34;2.00;99.90
55369;DHT22;41247;49.736;8.752;2022-11-20T01:33:15;2.10;99.90
55369;DHT22;41247;49.736;8.752;2022-11-20T01:36:55;2.10;99.90
55369;DHT22;41247;49.736;8.752;2022-11-20T01:40:36;2.10;99.90
55369;DHT22;41247;49.736;8.752;2022-11-20T01:44:19;2.10;99.90
55369;DHT22;41247;49.736;8.752;2022-11-20T01:48:01;2.10;99.90
55369;DHT22;41247;49.736;8.752;2022-11-20T01:51:45;2.10;99.90
55369;DHT22;41247;49.736;8.752;2022-11-20T01:55:37;2.10;99.90
55369;DHT22;41247;49.736;8.752;2022-11-20T01:59:22;2.10;99.90
55369;DHT22;41247;49.736;8.752;2022-11-20T02:03:07;2.20;99.90
55369;DHT22;41247;49.736;8.752;2022-11-20T02:07:00;2.20;99.90
55369;DHT22;41247;49.736;8.752;2022-11-20T02:10:41;2.20;99.90
55369;DHT22;41247;49.736;8.752;2022-11-20T02:14:22;2.30;99.90
55369;DHT22;41247;49.736;8.752;2022-11-20T02:18:04;2.30;99.90
55369;DHT22;41247;49.736;8.752;2022-11-20T02:22:19;2.30;99.90
55369;DHT22;41247;49.736;8.752;2022-11-20T02:26:06;2.30;99.90
55369;DHT22;41247;49.736;8.752;2022-11-20T02:29:53;2.30;99.90
55369;DHT22;41247;49.736;8.752;2022-11-20T02:33:37;2.20;99.90
55369;DHT22;41247;49.736;8.752;2022-11-20T02:37:18;2.20;99.90
55369;DHT22;41247;49.736;8.752;2022-11-20T02:40:59;2.20;99.90
55369;DHT22;41247;49.736;8.752;2022-11-20T02:44:40;2.20;99.90
55369;DHT22;41247;49.736;8.752;2022-11-20T02:48:21;2.20;99.90
55369;DHT22;41247;49.736;8.752;2022-11-20T02:52:02;2.20;99.90
55369;DHT22;41247;49.736;8.752;2022-11-20T02:55:42;2.20;99.90
55369;DHT22;41247;49.736;8.752;2022-11-20T02:59:23;2.20;99.90
55369;DHT22;41247;49.736;8.752;2022-11-20T03:03:03;2.30;99.90
55369;DHT22;41247;49.736;8.752;2022-11-20T03:06:44;2.30;99.90
55369;DHT22;41247;49.736;8.752;2022-11-20T03:10:25;2.30;99.90
55369;DHT22;41247;49.736;8.752;2022-11-20T03:14:05;2.30;99.90
55369;DHT22;41247;49.736;8.752;2022-11-20T03:17:46;2.20;99.90
55369;DHT22;41247;49.736;8.752;2022-11-20T03:21:27;2.30;99.90
55369;DHT22;41247;49.736;8.752;2022-11-20T03:25:07;2.20;99.90
55369;DHT22;41247;49.736;8.752;2022-11-20T03:28:51;2.30;99.90
55369;DHT22;41247;49.736;8.752;2022-11-20T03:32:33;2.20;99.90
55369;DHT22;41247;49.736;8.752;2022-11-20T03:36:15;2.20;99.90
55369;DHT22;41247;49.736;8.752;2022-11-20T03:39:56;2.20;99.90
55369;DHT22;41247;49.736;8.752;2022-11-20T03:43:37;2.20;99.90
55369;DHT22;41247;49.736;8.752;2022-11-20T03:47:18;2.20;99.90
55369;DHT22;41247;49.736;8.752;2022-11-20T03:51:10;2.20;99.90
55369;DHT22;41247;49.736;8.752;2022-11-20T03:54:55;2.20;99.90
55369;DHT22;41247;49.736;8.752;2022-11-20T03:58:36;2.20;99.90
55369;DHT22;41247;49.736;8.752;2022-11-20T04:02:18;2.20;99.90
55369;DHT22;41247;49.736;8.752;2022-11-20T04:06:13;2.20;99.90
55369;DHT22;41247;49.736;8.752;2022-11-20T04:09:59;2.20;99.90
55369;DHT22;41247;49.736;8.752;2022-11-20T04:13:41;2.10;99.90
55369;DHT22;41247;49.736;8.752;2022-11-20T04:22:18;2.20;99.90
55369;DHT22;41247;49.736;8.752;2022-11-20T04:31:26;2.10;99.90
55369;DHT22;41247;49.736;8.752;2022-11-20T04:40:29;2.20;99.90
55369;DHT22;41247;49.736;8.752;2022-11-20T04:44:10;2.30;99.90
55369;DHT22;41247;49.736;8.752;2022-11-20T04:47:50;2.30;99.90
55369;DHT22;41247;49.736;8.752;2022-11-20T04:51:53;2.40;99.90
55369;DHT22;41247;49.736;8.752;2022-11-20T04:56:08;2.50;99.90
55369;DHT22;41247;49.736;8.752;2022-11-20T04:59:54;2.60;99.90
55369;DHT22;41247;49.736;8.752;2022-11-20T05:08:59;2.80;99.90
55369;DHT22;41247;49.736;8.752;2022-11-20T05:13:11;2.90;99.90
55369;DHT22;41247;49.736;8.752;2022-11-20T05:16:54;2.90;99.90
55369;DHT22;41247;49.736;8.752;2022-11-20T05:21:13;3.00;99.90
55369;DHT22;41247;49.736;8.752;2022-11-20T05:25:10;3.00;99.90
55369;DHT22;41247;49.736;8.752;2022-11-20T05:29:11;3.10;99.90
55369;DHT22;41247;49.736;8.752;2022-11-20T05:33:46;3.10;99.90
55369;DHT22;41247;49.736;8.752;2022-11-20T05:37:48;3.10;99.90
55369;DHT22;41247;49.736;8.752;2022-11-20T05:42:09;3.00;99.90
55369;DHT22;41247;49.736;8.752;2022-11-20T05:46:16;3.00;99.90
55369;DHT22;41247;49.736;8.752;2022-11-20T05:50:00;3.00;99.90
55369;DHT22;41247;49.736;8.752;2022-11-20T05:54:14;3.00;99.90
55369;DHT22;41247;49.736;8.752;2022-11-20T05:58:23;3.00;99.90
55369;DHT22;41247;49.736;8.752;2022-11-20T06:02:21;2.90;99.90
55369;DHT22;41247;49.736;8.752;2022-11-20T06:11:06;2.90;99.90
55369;DHT22;41247;49.736;8.752;2022-11-20T06:15:25;2.90;99.90
55369;DHT22;41247;49.736;8.752;2022-11-20T06:24:25;2.90;99.90
55369;DHT22;41247;49.736;8.752;2022-11-20T06:28:50;3.00;99.90
55369;DHT22;41247;49.736;8.752;2022-11-20T06:32:54;3.10;99.90
55369;DHT22;41247;49.736;8.752;2022-11-20T06:37:05;3.10;99.90
55369;DHT22;41247;49.736;8.752;2022-11-20T06:40:53;3.10;99.90
55369;DHT22;41247;49.736;8.752;2022-11-20T06:44:59;3.10;99.90
55369;DHT22;41247;49.736;8.752;2022-11-20T06:49:08;3.20;99.90
55369;DHT22;41247;49.736;8.752;2022-11-20T07:02:19;3.10;99.90
55369;DHT22;41247;49.736;8.752;2022-11-20T07:15:22;3.10;99.90
55369;DHT22;41247;49.736;8.752;2022-11-20T07:19:16;3.10;99.90
55369;DHT22;41247;49.736;8.752;2022-11-20T07:22:57;3.20;99.90
55369;DHT22;41247;49.736;8.752;2022-11-20T07:26:38;3.30;99.90
55369;DHT22;41247;49.736;8.752;2022-11-20T07:30:19;3.30;99.90
55369;DHT22;41247;49.736;8.752;2022-11-20T07:33:59;3.30;99.90
55369;DHT22;41247;49.736;8.752;2022-11-20T07:37:40;3.40;99.90
55369;DHT22;41247;49.736;8.752;2022-11-20T07:41:20;3.40;99.90
55369;DHT22;41247;49.736;8.752;2022-11-20T07:45:01;3.50;99.90
55369;DHT22;41247;49.736;8.752;2022-11-20T07:48:41;3.50;99.90
55369;DHT22;41247;49.736;8.752;2022-11-20T07:52:22;3.70;99.90
55369;DHT22;41247;49.736;8.752;2022-11-20T07:56:03;3.80;99.90
55369;DHT22;41247;49.736;8.752;2022-11-20T07:59:45;3.80;99.90
55369;DHT22;41247;49.736;8.752;2022-11-20T08:03:26;3.80;99.90
55369;DHT22;41247;49.736;8.752;2022-11-20T08:07:07;3.80;99.90
55369;DHT22;41247;49.736;8.752;2022-11-20T08:10:47;3.80;99.90
55369;DHT22;41247;49.736;8.752;2022-11-20T08:14:28;3.80;99.90
55369;DHT22;41247;49.736;8.752;2022-11-20T08:18:11;3.80;99.90
55369;DHT22;41247;49.736;8.752;2022-11-20T08:21:52;3.80;99.90
55369;DHT22;41247;49.736;8.752;2022-11-20T08:25:37;3.80;99.90
55369;DHT22;41247;49.736;8.752;2022-11-20T08:29:18;3.80;99.90
55369;DHT22;41247;49.736;8.752;2022-11-20T08:33:04;3.80;99.90
55369;DHT22;41247;49.736;8.752;2022-11-20T08:36:46;3.80;99.90
55369;DHT22;41247;49.736;8.752;2022-11-20T08:40:26;3.70;99.90
55369;DHT22;41247;49.736;8.752;2022-11-20T08:44:07;3.70;99.90
55369;DHT22;41247;49.736;8.752;2022-11-20T08:47:48;3.70;99.90
55369;DHT22;41247;49.736;8.752;2022-11-20T08:51:29;3.70;99.90
55369;DHT22;41247;49.736;8.752;2022-11-20T08:55:10;3.70;99.90
55369;DHT22;41247;49.736;8.752;2022-11-20T08:58:51;3.70;99.90
55369;DHT22;41247;49.736;8.752;2022-11-20T09:02:32;3.80;99.90
55369;DHT22;41247;49.736;8.752;2022-11-20T09:06:14;3.80;99.90
55369;DHT22;41247;49.736;8.752;2022-11-20T09:09:54;3.80;99.90
55369;DHT22;41247;49.736;8.752;2022-11-20T09:13:36;3.80;99.90
55369;DHT22;41247;49.736;8.752;2022-11-20T09:17:16;3.80;99.90
55369;DHT22;41247;49.736;8.752;2022-11-20T09:20:58;3.80;99.90
55369;DHT22;41247;49.736;8.752;2022-11-20T09:24:39;3.80;99.90
55369;DHT22;41247;49.736;8.752;2022-11-20T09:28:20;3.90;99.90
55369;DHT22;41247;49.736;8.752;2022-11-20T09:32:01;3.90;99.90
55369;DHT22;41247;49.736;8.752;2022-11-20T09:35:43;3.90;99.90
55369;DHT22;41247;49.736;8.752;2022-11-20T09:39:24;3.90;99.90
55369;DHT22;41247;49.736;8.752;2022-11-20T09:43:26;3.90;99.90
55369;DHT22;41247;49.736;8.752;2022-11-20T09:47:36;4.00;99.90
55369;DHT22;41247;49.736;8.752;2022-11-20T09:51:39;4.10;99.90
55369;DHT22;41247;49.736;8.752;2022-11-20T09:55:21;4.10;99.90
55369;DHT22;41247;49.736;8.752;2022-11-20T09:59:05;4.10;99.90
55369;DHT22;41247;49.736;8.752;2022-11-20T10:02:55;4.20;99.90
55369;DHT22;41247;49.736;8.752;2022-11-20T10:07:51;4.30;99.90
55369;DHT22;41247;49.736;8.752;2022-11-20T10:24:30;4.50;99.90
55369;DHT22;41247;49.736;8.752;2022-11-20T10:32:43;4.80;99.90
55369;DHT22;41247;49.736;8.752;2022-11-20T10:36:33;4.90;99.90
55369;DHT22;41247;49.736;8.752;2022-11-20T10:40:23;4.90;99.90
55369;DHT22;41247;49.736;8.752;2022-11-20T10:44:14;4.90;99.90
55369;DHT22;41247;49.736;8.752;2022-11-20T10:48:17;4.80;99.90
55369;DHT22;41247;49.736;8.752;2022-11-20T10:52:29;4.70;99.90
55369;DHT22;41247;49.736;8.752;2022-11-20T10:56:19;4.70;99.90
55369;DHT22;41247;49.736;8.752;2022-11-20T11:00:21;4.70;99.90
55369;DHT22;41247;49.736;8.752;2022-11-20T11:04:02;4.70;99.90
55369;DHT22;41247;49.736;8.752;2022-11-20T11:07:45;4.70;99.90
55369;DHT22;41247;49.736;8.752;2022-11-20T11:11:29;4.70;99.90
55369;DHT22;41247;49.736;8.752;2022-11-20T11:19:13;4.60;99.90
55369;DHT22;41247;49.736;8.752;2022-11-20T11:22:56;4.60;99.90
55369;DHT22;41247;49.736;8.752;2022-11-20T11:26:37;4.70;99.90
55369;DHT22;41247;49.736;8.752;2022-11-20T11:30:19;4.70;99.90
55369;DHT22;41247;49.736;8.752;2022-11-20T11:34:27;4.70;99.90
55369;DHT22;41247;49.736;8.752;2022-11-20T11:38:14;4.80;99.90
55369;DHT22;41247;49.736;8.752;2022-11-20T11:41:58;4.80;99.90
55369;DHT22;41247;49.736;8.752;2022-11-20T11:45:52;4.80;99.90
55369;DHT22;41247;49.736;8.752;2022-11-20T11:49:33;4.90;99.90
55369;DHT22;41247;49.736;8.752;2022-11-20T11:53:21;4.90;99.90
55369;DHT22;41247;49.736;8.752;2022-11-20T11:57:14;4.90;99.90
55369;DHT22;41247;49.736;8.752;2022-11-20T12:01:29;4.80;99.90
55369;DHT22;41247;49.736;8.752;2022-11-20T12:05:23;4.70;99.90
55369;DHT22;41247;49.736;8.752;2022-11-20T12:09:18;4.70;99.90
55369;DHT22;41247;49.736;8.752;2022-11-20T12:13:08;4.60;99.90
55369;DHT22;41247;49.736;8.752;2022-11-20T12:16:52;4.70;99.90
55369;DHT22;41247;49.736;8.752;2022-11-20T12:20:41;4.70;99.90
55369;DHT22;41247;49.736;8.752;2022-11-20T12:28:53;4.70;99.90
55369;DHT22;41247;49.736;8.752;2022-11-20T12:37:19;4.70;99.90
55369;DHT22;41247;49.736;8.752;2022-11-20T12:41:13;4.70;99.90
55369;DHT22;41247;49.736;8.752;2022-11-20T12:54:23;4.80;99.90
55369;DHT22;41247;49.736;8.752;2022-11-20T12:58:24;4.80;99.90
55369;DHT22;41247;49.736;8.752;2022-11-20T13:02:44;4.80;99.90
55369;DHT22;41247;49.736;8.752;2022-11-20T13:06:31;5.00;99.90
55369;DHT22;41247;49.736;8.752;2022-11-20T13:11:03;5.10;99.90
55369;DHT22;41247;49.736;8.752;2022-11-20T13:18:15;5.10;99.90
55369;DHT22;41247;49.736;8.752;2022-11-20T13:21:56;5.20;99.90
55369;DHT22;41247;49.736;8.752;2022-11-20T13:25:39;5.20;99.90
55369;DHT22;41247;49.736;8.752;2022-11-20T13:29:20;5.20;99.90
55369;DHT22;41247;49.736;8.752;2022-11-20T13:33:03;5.20;99.90
55369;DHT22;41247;49.736;8.752;2022-11-20T13:36:51;5.20;99.90
55369;DHT22;41247;49.736;8.752;2022-11-20T13:40:57;5.20;99.90
55369;DHT22;41247;49.736;8.752;2022-11-20T13:44:43;5.20;99.90
55369;DHT22;41247;49.736;8.752;2022-11-20T13:48:31;5.20;99.90
55369;DHT22;41247;49.736;8.752;2022-11-20T13:56:29;5.10;99.90
55369;DHT22;41247;49.736;8.752;2022-11-20T14:00:20;5.20;99.90
55369;DHT22;41247;49.736;8.752;2022-11-20T14:04:15;5.20;99.90
55369;DHT22;41247;49.736;8.752;2022-11-20T14:07:58;5.20;99.90
55369;DHT22;41247;49.736;8.752;2022-11-20T14:11:46;5.20;99.90
55369;DHT22;41247;49.736;8.752;2022-11-20T14:15:29;5.30;99.90
55369;DHT22;41247;49.736;8.752;2022-11-20T14:19:29;5.30;99.90
55369;DHT22;41247;49.736;8.752;2022-11-20T14:23:11;5.40;99.90
55369;DHT22;41247;49.736;8.752;2022-11-20T14:26:52;5.40;99.90
55369;DHT22;41247;49.736;8.752;2022-11-20T14:30:43;5.50;99.90
55369;DHT22;41247;49.736;8.752;2022-11-20T14:34:27;5.50;99.90
55369;DHT22;41247;49.736;8.752;2022-11-20T14:38:12;5.50;99.90
55369;DHT22;41247;49.736;8.752;2022-11-20T14:41:55;5.50;99.90
55369;DHT22;41247;49.736;8.752;2022-11-20T14:45:36;5.50;99.90
55369;DHT22;41247;49.736;8.752;2022-11-20T14:49:18;5.50;99.90
55369;DHT22;41247;49.736;8.752;2022-11-20T14:53:00;5.50;99.90
55369;DHT22;41247;49.736;8.752;2022-11-20T14:56:41;5.50;99.90
55369;DHT22;41247;49.736;8.752;2022-11-20T15:00:24;5.50;99.90
55369;DHT22;41247;49.736;8.752;2022-11-20T15:04:08;5.40;99.90
55369;DHT22;41247;49.736;8.752;2022-11-20T15:12:02;5.40;99.90
55369;DHT22;41247;49.736;8.752;2022-11-20T15:19:30;5.30;99.90
55369;DHT22;41247;49.736;8.752;2022-11-20T15:23:13;5.20;99.90
55369;DHT22;41247;49.736;8.752;2022-11-20T15:26:57;5.20;99.90
55369;DHT22;41247;49.736;8.752;2022-11-20T15:30:37;5.20;99.90
55369;DHT22;41247;49.736;8.752;2022-11-20T15:34:18;5.20;99.90
55369;DHT22;41247;49.736;8.752;2022-11-20T15:37:59;5.30;99.90
55369;DHT22;41247;49.736;8.752;2022-11-20T15:41:39;5.30;99.90
55369;DHT22;41247;49.736;8.752;2022-11-20T15:45:20;5.30;99.90
55369;DHT22;41247;49.736;8.752;2022-11-20T15:49:00;5.30;99.90
55369;DHT22;41247;49.736;8.752;2022-11-20T15:52:41;5.30;99.90
55369;DHT22;41247;49.736;8.752;2022-11-20T15:56:22;5.30;99.90
55369;DHT22;41247;49.736;8.752;2022-11-20T16:00:03;5.30;99.90
55369;DHT22;41247;49.736;8.752;2022-11-20T16:03:44;5.30;99.90
55369;DHT22;41247;49.736;8.752;2022-11-20T16:07:25;5.20;99.90
55369;DHT22;41247;49.736;8.752;2022-11-20T16:11:05;5.20;99.90
55369;DHT22;41247;49.736;8.752;2022-11-20T16:14:46;5.20;99.90
55369;DHT22;41247;49.736;8.752;2022-11-20T16:18:26;5.20;99.90
55369;DHT22;41247;49.736;8.752;2022-11-20T16:22:10;5.20;99.90
55369;DHT22;41247;49.736;8.752;2022-11-20T16:25:51;5.20;99.90
55369;DHT22;41247;49.736;8.752;2022-11-20T16:29:31;5.20;99.90
55369;DHT22;41247;49.736;8.752;2022-11-20T16:33:14;5.30;99.90
55369;DHT22;41247;49.736;8.752;2022-11-20T16:36:56;5.30;99.90
55369;DHT22;41247;49.736;8.752;2022-11-20T16:40:36;5.40;99.90
55369;DHT22;41247;49.736;8.752;2022-11-20T16:44:17;5.40;99.90
55369;DHT22;41247;49.736;8.752;2022-11-20T16:47:57;5.40;99.90
55369;DHT22;41247;49.736;8.752;2022-11-20T16:51:38;5.50;99.90
55369;DHT22;41247;49.736;8.752;2022-11-20T16:55:19;5.50;99.90
55369;DHT22;41247;49.736;8.752;2022-11-20T16:59:00;5.50;99.90
55369;DHT22;41247;49.736;8.752;2022-11-20T17:02:41;5.50;99.90
55369;DHT22;41247;49.736;8.752;2022-11-20T17:06:24;5.50;99.90
55369;DHT22;41247;49.736;8.752;2022-11-20T17:10:06;5.50;99.90
55369;DHT22;41247;49.736;8.752;2022-11-20T17:13:47;5.40;99.90
55369;DHT22;41247;49.736;8.752;2022-11-20T17:17:28;5.40;99.90
55369;DHT22;41247;49.736;8.752;2022-11-20T17:21:10;5.30;99.90
55369;DHT22;41247;49.736;8.752;2022-11-20T17:24:51;5.20;99.90
55369;DHT22;41247;49.736;8.752;2022-11-20T17:28:33;5.20;99.90
55369;DHT22;41247;49.736;8.752;2022-11-20T17:32:14;5.20;99.90
55369;DHT22;41247;49.736;8.752;2022-11-20T17:35:55;5.20;99.90
55369;DHT22;41247;49.736;8.752;2022-11-20T17:39:36;5.20;99.90
55369;DHT22;41247;49.736;8.752;2022-11-20T17:43:16;5.10;99.90
55369;DHT22;41247;49.736;8.752;2022-11-20T17:46:57;5.00;99.90
55369;DHT22;41247;49.736;8.752;2022-11-20T17:50:38;5.00;99.90
55369;DHT22;41247;49.736;8.752;2022-11-20T17:54:18;4.90;99.90
55369;DHT22;41247;49.736;8.752;2022-11-20T17:57:59;4.90;99.90
55369;DHT22;41247;49.736;8.752;2022-11-20T18:01:40;4.90;99.90
55369;DHT22;41247;49.736;8.752;2022-11-20T18:05:20;4.80;99.90
55369;DHT22;41247;49.736;8.752;2022-11-20T18:09:02;4.80;99.90
55369;DHT22;41247;49.736;8.752;2022-11-20T18:12:44;4.70;99.90
55369;DHT22;41247;49.736;8.752;2022-11-20T18:16:26;4.70;99.90
55369;DHT22;41247;49.736;8.752;2022-11-20T18:20:08;4.70;99.90
55369;DHT22;41247;49.736;8.752;2022-11-20T18:23:49;4.70;99.90
55369;DHT22;41247;49.736;8.752;2022-11-20T18:27:30;4.70;99.90
55369;DHT22;41247;49.736;8.752;2022-11-20T18:31:11;4.70;99.90
55369;DHT22;41247;49.736;8.752;2022-11-20T18:34:52;4.70;99.90
55369;DHT22;41247;49.736;8.752;2022-11-20T18:38:32;4.70;99.90
55369;DHT22;41247;49.736;8.752;2022-11-20T18:42:14;4.70;99.90
55369;DHT22;41247;49.736;8.752;2022-11-20T18:46:02;4.70;99.90
55369;DHT22;41247;49.736;8.752;2022-11-20T18:49:44;4.70;99.90
55369;DHT22;41247;49.736;8.752;2022-11-20T18:53:27;4.70;99.90
55369;DHT22;41247;49.736;8.752;2022-11-20T18:57:08;4.70;99.90
55369;DHT22;41247;49.736;8.752;2022-11-20T19:00:48;4.70;99.90
55369;DHT22;41247;49.736;8.752;2022-11-20T19:04:29;4.70;99.90
55369;DHT22;41247;49.736;8.752;2022-11-20T19:08:10;4.60;99.90
55369;DHT22;41247;49.736;8.752;2022-11-20T19:11:50;4.70;99.90
55369;DHT22;41247;49.736;8.752;2022-11-20T19:15:33;4.60;99.90
55369;DHT22;41247;49.736;8.752;2022-11-20T19:19:13;4.60;99.90
55369;DHT22;41247;49.736;8.752;2022-11-20T19:22:54;4.60;99.90
55369;DHT22;41247;49.736;8.752;2022-11-20T19:26:36;4.50;99.90
55369;DHT22;41247;49.736;8.752;2022-11-20T19:30:16;4.50;99.90
55369;DHT22;41247;49.736;8.752;2022-11-20T19:34:02;4.50;99.90
55369;DHT22;41247;49.736;8.752;2022-11-20T19:37:42;4.40;99.90
55369;DHT22;41247;49.736;8.752;2022-11-20T19:41:25;4.40;99.90
55369;DHT22;41247;49.736;8.752;2022-11-20T19:45:07;4.40;99.90
55369;DHT22;41247;49.736;8.752;2022-11-20T19:48:48;4.40;99.90
55369;DHT22;41247;49.736;8.752;2022-11-20T19:52:28;4.40;99.90
55369;DHT22;41247;49.736;8.752;2022-11-20T19:56:09;4.40;99.90
55369;DHT22;41247;49.736;8.752;2022-11-20T19:59:50;4.40;99.90
55369;DHT22;41247;49.736;8.752;2022-11-20T20:03:31;4.40;99.90
55369;DHT22;41247;49.736;8.752;2022-11-20T20:07:12;4.40;99.90
55369;DHT22;41247;49.736;8.752;2022-11-20T20:10:52;4.40;99.90
55369;DHT22;41247;49.736;8.752;2022-11-20T20:14:33;4.40;99.90
55369;DHT22;41247;49.736;8.752;2022-11-20T20:18:14;4.40;99.90
55369;DHT22;41247;49.736;8.752;2022-11-20T20:21:55;4.40;99.90
55369;DHT22;41247;49.736;8.752;2022-11-20T20:25:35;4.40;99.90
55369;DHT22;41247;49.736;8.752;2022-11-20T20:29:16;4.40;99.90
55369;DHT22;41247;49.736;8.752;2022-11-20T20:32:57;4.40;99.90
55369;DHT22;41247;49.736;8.752;2022-11-20T20:36:37;4.40;99.90
55369;DHT22;41247;49.736;8.752;2022-11-20T20:40:18;4.40;99.90
55369;DHT22;41247;49.736;8.752;2022-11-20T20:44:00;4.50;99.90
55369;DHT22;41247;49.736;8.752;2022-11-20T20:47:41;4.50;99.90
55369;DHT22;41247;49.736;8.752;2022-11-20T20:51:22;4.50;99.90
55369;DHT22;41247;49.736;8.752;2022-11-20T20:55:03;4.50;99.90
55369;DHT22;41247;49.736;8.752;2022-11-20T20:58:44;4.50;99.90
55369;DHT22;41247;49.736;8.752;2022-11-20T21:02:25;4.50;99.90
55369;DHT22;41247;49.736;8.752;2022-11-20T21:06:08;4.60;99.90
55369;DHT22;41247;49.736;8.752;2022-11-20T21:09:49;4.60;99.90
55369;DHT22;41247;49.736;8.752;2022-11-20T21:13:30;4.60;99.90
55369;DHT22;41247;49.736;8.752;2022-11-20T21:17:12;4.60;99.90
55369;DHT22;41247;49.736;8.752;2022-11-20T21:20:52;4.60;99.90
55369;DHT22;41247;49.736;8.752;2022-11-20T21:24:35;4.70;99.90
55369;DHT22;41247;49.736;8.752;2022-11-20T21:28:15;4.80;99.90
55369;DHT22;41247;49.736;8.752;2022-11-20T21:31:56;4.90;99.90
55369;DHT22;41247;49.736;8.752;2022-11-20T21:35:37;4.90;99.90
55369;DHT22;41247;49.736;8.752;2022-11-20T21:39:18;4.90;99.90
55369;DHT22;41247;49.736;8.752;2022-11-20T21:42:58;4.90;99.90
55369;DHT22;41247;49.736;8.752;2022-11-20T21:46:41;4.90;99.90
55369;DHT22;41247;49.736;8.752;2022-11-20T21:50:23;4.90;99.90
55369;DHT22;41247;49.736;8.752;2022-11-20T21:54:03;4.90;99.90
55369;DHT22;41247;49.736;8.752;2022-11-20T21:57:44;5.00;99.90
55369;DHT22;41247;49.736;8.752;2022-11-20T22:01:27;5.00;99.90
55369;DHT22;41247;49.736;8.752;2022-11-20T22:05:08;5.10;99.90
55369;DHT22;41247;49.736;8.752;2022-11-20T22:08:49;5.10;99.90
55369;DHT22;41247;49.736;8.752;2022-11-20T22:12:29;5.10;99.90
55369;DHT22;41247;49.736;8.752;2022-11-20T22:16:11;5.10;99.90
55369;DHT22;41247;49.736;8.752;2022-11-20T22:19:52;5.10;99.90
55369;DHT22;41247;49.736;8.752;2022-11-20T22:23:33;5.10;99.90
55369;DHT22;41247;49.736;8.752;2022-11-20T22:27:14;5.10;99.90
55369;DHT22;41247;49.736;8.752;2022-11-20T22:30:58;5.00;99.90
55369;DHT22;41247;49.736;8.752;2022-11-20T22:34:39;5.00;99.90
55369;DHT22;41247;49.736;8.752;2022-11-20T22:38:24;5.00;99.90
55369;DHT22;41247;49.736;8.752;2022-11-20T22:42:04;5.00;99.90
55369;DHT22;41247;49.736;8.752;2022-11-20T22:45:45;5.00;99.90
55369;DHT22;41247;49.736;8.752;2022-11-20T22:49:25;5.00;99.90
55369;DHT22;41247;49.736;8.752;2022-11-20T22:53:06;5.00;99.90
55369;DHT22;41247;49.736;8.752;2022-11-20T22:56:46;4.90;99.90
55369;DHT22;41247;49.736;8.752;2022-11-20T23:00:27;4.90;99.90
55369;DHT22;41247;49.736;8.752;2022-11-20T23:04:10;4.90;99.90
55369;DHT22;41247;49.736;8.752;2022-11-20T23:07:50;4.90;99.90
55369;DHT22;41247;49.736;8.752;2022-11-20T23:11:32;4.90;99.90
55369;DHT22;41247;49.736;8.752;2022-11-20T23:15:12;4.90;99.90
55369;DHT22;41247;49.736;8.752;2022-11-20T23:18:58;4.90;99.90
55369;DHT22;41247;49.736;8.752;2022-11-20T23:22:40;4.90;99.90
55369;DHT22;41247;49.736;8.752;2022-11-20T23:26:23;4.90;99.90
55369;DHT22;41247;49.736;8.752;2022-11-20T23:30:05;4.90;99.90
55369;DHT22;41247;49.736;8.752;2022-11-20T23:33:46;4.90;99.90
55369;DHT22;41247;49.736;8.752;2022-11-20T23:37:27;4.80;99.90
55369;DHT22;41247;49.736;8.752;2022-11-20T23:41:08;4.80;99.90
55369;DHT22;41247;49.736;8.752;2022-11-20T23:44:48;4.80;99.90
55369;DHT22;41247;49.736;8.752;2022-11-20T23:48:36;4.80;99.90
55369;DHT22;41247;49.736;8.752;2022-11-20T23:52:17;4.80;99.90
55369;DHT22;41247;49.736;8.752;2022-11-20T23:56:00;4.80;99.90
55369;DHT22;41247;49.736;8.752;2022-11-20T23:59:42;4.80;99.90
